createdAt,value
2019-03-24T00:02:09.161Z,24.57
2019-03-24T00:04:39.447Z,23.87
2019-03-24T00:07:09.678Z,26.03
2019-03-24T00:09:39.961Z,24.30
2019-03-24T00:12:10.190Z,25.40
2019-03-24T00:14:41.430Z,22.87
2019-03-24T00:17:11.823Z,27.03
2019-03-24T00:19:42.265Z,27.00
2019-03-24T00:22:12.643Z,25.67
2019-03-24T00:24:44.823Z,27.17
2019-03-24T00:27:14.890Z,25.20
2019-03-24T00:29:45.190Z,24.13
2019-03-24T00:32:16.584Z,25.93
2019-03-24T00:34:49.030Z,24.73
2019-03-24T00:37:19.461Z,24.67
2019-03-24T00:39:49.822Z,25.67
2019-03-24T00:42:20.350Z,31.67
2019-03-24T00:44:50.640Z,29.00
2019-03-24T00:47:21.023Z,28.80
2019-03-24T00:49:54.931Z,24.87
2019-03-24T00:52:25.190Z,32.27
2019-03-24T00:54:55.575Z,26.83
2019-03-24T00:57:26.005Z,28.43
2019-03-24T00:59:56.279Z,27.87
2019-03-24T01:02:26.583Z,24.00
2019-03-24T01:04:57.008Z,29.53
2019-03-24T01:07:27.239Z,28.40
2019-03-24T01:09:57.498Z,26.10
2019-03-24T01:12:27.815Z,27.77
2019-03-24T01:14:58.106Z,28.87
2019-03-24T01:17:28.450Z,27.93
2019-03-24T01:19:59.802Z,27.30
2019-03-24T01:22:30.277Z,24.10
2019-03-24T01:25:00.592Z,27.27
2019-03-24T01:27:30.860Z,25.03
2019-03-24T01:30:01.966Z,27.47
2019-03-24T01:32:32.294Z,26.77
2019-03-24T01:35:07.610Z,30.40
2019-03-24T01:37:38.850Z,25.67
2019-03-24T01:40:09.727Z,26.10
2019-03-24T01:42:40.033Z,26.70
2019-03-24T01:45:11.005Z,27.47
2019-03-24T01:47:41.362Z,23.63
2019-03-24T01:50:12.647Z,25.03
2019-03-24T01:52:43.095Z,25.13
2019-03-24T01:55:13.441Z,26.10
2019-03-24T01:57:43.899Z,23.50
2019-03-24T02:00:15.140Z,26.30
2019-03-24T02:02:45.924Z,23.70
2019-03-24T02:05:16.559Z,26.57
2019-03-24T02:07:46.878Z,28.00
2019-03-24T02:10:21.078Z,25.67
2019-03-24T02:12:51.378Z,26.47
2019-03-24T02:15:21.746Z,23.87
2019-03-24T02:17:54.386Z,25.50
2019-03-24T02:20:25.158Z,26.97
2019-03-24T02:22:55.421Z,28.53
2019-03-24T02:25:25.741Z,26.70
2019-03-24T02:27:56.287Z,28.90
2019-03-24T02:30:26.786Z,28.60
2019-03-24T02:32:57.037Z,29.93
2019-03-24T02:35:27.463Z,28.07
2019-03-24T02:37:57.899Z,27.40
2019-03-24T02:40:28.596Z,29.67
2019-03-24T02:42:58.938Z,30.20
2019-03-24T02:45:29.242Z,26.97
2019-03-24T02:47:59.671Z,31.27
2019-03-24T02:50:29.973Z,24.47
2019-03-24T02:53:00.219Z,29.43
2019-03-24T02:55:30.591Z,26.07
2019-03-24T02:58:00.945Z,28.80
2019-03-24T03:00:31.272Z,27.40
2019-03-24T03:03:01.656Z,27.13
2019-03-24T03:05:32.144Z,28.47
2019-03-24T03:08:02.569Z,29.40
2019-03-24T03:10:32.953Z,30.97
2019-03-24T03:13:03.296Z,30.13
2019-03-24T03:15:33.629Z,27.43
2019-03-24T03:18:03.994Z,29.60
2019-03-24T03:20:34.867Z,29.63
2019-03-24T03:23:05.110Z,32.67
2019-03-24T03:25:35.335Z,33.40
2019-03-24T03:28:05.606Z,29.40
2019-03-24T03:30:36.600Z,35.80
2019-03-24T03:33:08.009Z,31.83
2019-03-24T03:35:38.277Z,27.63
2019-03-24T03:38:08.701Z,27.87
2019-03-24T03:40:39.749Z,32.67
2019-03-24T03:43:10.162Z,31.27
2019-03-24T03:45:40.392Z,32.80
2019-03-24T03:48:10.634Z,35.63
2019-03-24T03:50:40.960Z,27.93
2019-03-24T03:53:11.362Z,30.93
2019-03-24T03:55:41.765Z,31.47
2019-03-24T03:58:12.074Z,35.70
2019-03-24T04:00:42.397Z,27.80
2019-03-24T04:03:12.686Z,34.73
2019-03-24T04:05:43.629Z,33.13
2019-03-24T04:08:13.893Z,31.97
2019-03-24T04:10:44.181Z,34.93
2019-03-24T04:13:14.565Z,38.50
2019-03-24T04:15:45.947Z,36.90
2019-03-24T04:18:16.361Z,39.80
2019-03-24T04:20:46.839Z,38.27
2019-03-24T04:23:17.210Z,35.97
2019-03-24T04:25:49.519Z,37.00
2019-03-24T04:28:19.859Z,35.40
2019-03-24T04:30:50.275Z,41.17
2019-03-24T04:33:20.642Z,42.77
2019-03-24T04:35:51.075Z,44.60
2019-03-24T04:38:21.321Z,43.57
2019-03-24T04:40:51.570Z,38.90
2019-03-24T04:43:21.895Z,34.63
2019-03-24T04:45:52.187Z,35.90
2019-03-24T04:48:22.549Z,37.97
2019-03-24T04:50:54.314Z,43.57
2019-03-24T04:53:25.772Z,38.10
2019-03-24T04:55:56.360Z,35.90
2019-03-24T04:58:26.889Z,34.33
2019-03-24T05:00:57.249Z,34.03
2019-03-24T05:03:28.519Z,32.83
2019-03-24T05:05:59.030Z,32.17
2019-03-24T05:08:29.318Z,31.70
2019-03-24T05:10:59.669Z,34.13
2019-03-24T05:13:29.958Z,35.97
2019-03-24T05:16:02.598Z,34.10
2019-03-24T05:18:32.811Z,39.07
2019-03-24T05:21:03.141Z,33.23
2019-03-24T05:23:33.509Z,34.73
2019-03-24T05:26:04.109Z,33.67
2019-03-24T05:28:34.499Z,37.33
2019-03-24T05:31:04.850Z,33.50
2019-03-24T05:33:35.211Z,35.63
2019-03-24T05:36:05.546Z,38.20
2019-03-24T05:38:35.806Z,36.00
2019-03-24T05:41:06.109Z,33.20
2019-03-24T05:43:36.577Z,37.83
2019-03-24T05:46:06.968Z,33.07
2019-03-24T05:48:37.356Z,37.17
2019-03-24T05:51:07.663Z,36.60
2019-03-24T05:53:37.945Z,35.30
2019-03-24T05:56:08.374Z,36.93
2019-03-24T05:58:38.622Z,38.77
2019-03-24T06:01:09.033Z,38.83
2019-03-24T06:03:39.234Z,41.33
2019-03-24T06:06:09.581Z,42.27
2019-03-24T06:08:39.914Z,41.07
2019-03-24T06:11:10.254Z,40.73
2019-03-24T06:13:40.585Z,38.37
2019-03-24T06:16:10.885Z,39.87
2019-03-24T06:18:41.222Z,36.97
2019-03-24T06:21:11.453Z,36.63
2019-03-24T06:23:41.741Z,41.10
2019-03-24T06:26:12.054Z,41.03
2019-03-24T06:28:42.386Z,39.83
2019-03-24T06:31:12.581Z,37.20
2019-03-24T06:33:44.204Z,45.90
2019-03-24T06:36:14.497Z,42.90
2019-03-24T06:38:44.832Z,45.97
2019-03-24T06:41:15.181Z,50.80
2019-03-24T06:43:45.477Z,53.90
2019-03-24T06:46:15.807Z,54.60
2019-03-24T06:48:46.114Z,55.67
2019-03-24T06:51:16.381Z,60.23
2019-03-24T06:53:46.749Z,55.63
2019-03-24T06:56:17.043Z,56.00
2019-03-24T06:58:47.356Z,60.83
2019-03-24T07:01:17.619Z,56.83
2019-03-24T07:03:47.963Z,60.03
2019-03-24T07:06:18.322Z,66.50
2019-03-24T07:08:48.634Z,61.07
2019-03-24T07:11:18.918Z,61.93
2019-03-24T07:13:49.209Z,63.10
2019-03-24T07:16:19.594Z,62.80
2019-03-24T07:18:50.025Z,58.47
2019-03-24T07:21:20.298Z,59.93
2019-03-24T07:23:50.577Z,59.87
2019-03-24T07:26:20.961Z,57.33
2019-03-24T07:28:51.293Z,55.90
2019-03-24T07:31:21.488Z,58.63
2019-03-24T07:33:51.725Z,57.33
2019-03-24T07:36:22.065Z,61.77
2019-03-24T07:38:52.418Z,62.23
2019-03-24T07:41:22.626Z,63.50
2019-03-24T07:43:52.962Z,57.03
2019-03-24T07:46:23.291Z,55.00
2019-03-24T07:48:53.634Z,58.90
2019-03-24T07:51:23.917Z,58.10
2019-03-24T07:53:54.305Z,57.43
2019-03-24T07:56:24.557Z,58.90
2019-03-24T07:58:54.875Z,56.60
2019-03-24T08:01:25.199Z,55.27
2019-03-24T08:03:55.473Z,63.33
2019-03-24T08:06:25.789Z,58.67
2019-03-24T08:08:56.117Z,62.27
2019-03-24T08:11:26.414Z,57.77
2019-03-24T08:13:56.737Z,54.77
2019-03-24T08:16:27.096Z,56.43
2019-03-24T08:18:57.443Z,59.80
2019-03-24T08:21:27.714Z,51.00
2019-03-24T08:23:58.062Z,57.40
2019-03-24T08:26:28.376Z,54.50
2019-03-24T08:28:58.597Z,56.87
2019-03-24T08:31:28.937Z,55.53
2019-03-24T08:33:59.137Z,51.67
2019-03-24T08:36:29.567Z,55.52
2019-03-24T08:38:59.978Z,55.67
2019-03-24T08:41:31.514Z,53.92
2019-03-24T08:44:01.807Z,50.00
2019-03-24T08:46:32.042Z,49.30
2019-03-24T08:49:02.367Z,48.50
2019-03-24T08:51:32.609Z,46.53
2019-03-24T08:54:02.942Z,50.00
2019-03-24T08:56:33.278Z,46.83
2019-03-24T08:59:03.488Z,46.50
2019-03-24T09:01:33.774Z,42.58
2019-03-24T09:04:04.009Z,43.05
2019-03-24T09:06:34.246Z,43.75
2019-03-24T09:09:06.041Z,40.67
2019-03-24T09:11:36.305Z,44.30
2019-03-24T09:14:06.619Z,42.62
2019-03-24T09:16:36.930Z,38.95
2019-03-24T09:19:07.287Z,41.15
2019-03-24T09:21:37.658Z,40.03
2019-03-24T09:24:07.978Z,42.73
2019-03-24T09:26:38.300Z,39.38
2019-03-24T09:29:08.523Z,38.05
2019-03-24T09:31:38.763Z,40.70
2019-03-24T09:34:08.983Z,38.90
2019-03-24T09:36:39.212Z,42.53
2019-03-24T09:39:09.869Z,39.08
2019-03-24T09:41:40.151Z,38.75
2019-03-24T09:44:10.445Z,43.68
2019-03-24T09:46:41.269Z,39.23
2019-03-24T09:49:11.545Z,35.78
2019-03-24T09:51:41.823Z,41.42
2019-03-24T09:54:12.118Z,36.90
2019-03-24T09:56:42.497Z,36.95
2019-03-24T09:59:12.741Z,42.13
2019-03-24T10:01:43.079Z,35.98
2019-03-24T10:04:13.273Z,41.63
2019-03-24T10:06:43.492Z,39.53
2019-03-24T10:09:13.807Z,34.70
2019-03-24T10:11:44.061Z,39.38
2019-03-24T10:14:14.265Z,41.37
2019-03-24T10:16:44.602Z,35.98
2019-03-24T10:19:14.856Z,43.87
2019-03-24T10:21:45.195Z,40.30
2019-03-24T10:24:15.479Z,34.63
2019-03-24T10:26:45.746Z,36.17
2019-03-24T10:29:16.031Z,37.50
2019-03-24T10:31:46.398Z,36.08
2019-03-24T10:34:16.685Z,31.45
2019-03-24T10:36:47.020Z,39.53
2019-03-24T10:39:17.237Z,35.73
2019-03-24T10:41:47.613Z,40.15
2019-03-24T10:44:17.947Z,34.58
2019-03-24T10:46:48.368Z,36.60
2019-03-24T10:49:24.847Z,31.30
2019-03-24T10:51:50.783Z,39.30
2019-03-24T10:54:20.977Z,34.48
2019-03-24T10:56:51.153Z,36.68
2019-03-24T10:59:21.366Z,33.10
2019-03-24T11:01:51.591Z,38.92
2019-03-24T11:04:21.886Z,33.18
2019-03-24T11:06:52.185Z,36.33
2019-03-24T11:09:22.535Z,35.73
2019-03-24T11:11:52.832Z,37.85
2019-03-24T11:14:22.981Z,33.50
2019-03-24T11:16:53.188Z,32.83
2019-03-24T11:19:35.066Z,36.05
2019-03-24T11:21:56.341Z,31.68
2019-03-24T11:24:26.581Z,32.78
2019-03-24T11:26:56.810Z,31.77
2019-03-24T11:29:27.058Z,37.20
2019-03-24T11:31:57.269Z,32.30
2019-03-24T11:34:27.507Z,33.75
2019-03-24T11:36:57.709Z,29.82
2019-03-24T11:39:27.864Z,35.38
2019-03-24T11:41:58.084Z,36.13
2019-03-24T11:44:29.636Z,36.00
2019-03-24T11:46:59.982Z,34.30
2019-03-24T11:49:30.272Z,31.70
2019-03-24T11:52:00.636Z,28.50
2019-03-24T11:54:31.025Z,33.28
2019-03-24T11:57:01.306Z,32.05
2019-03-24T11:59:31.529Z,38.90
2019-03-24T12:02:01.761Z,30.52
2019-03-24T12:04:32.093Z,30.62
2019-03-24T12:07:02.442Z,29.60
2019-03-24T12:09:32.690Z,29.25
2019-03-24T12:12:02.918Z,30.48
2019-03-24T12:14:33.179Z,29.77
2019-03-24T12:17:03.430Z,30.12
2019-03-24T12:19:33.661Z,30.12
2019-03-24T12:22:04.031Z,31.95
2019-03-24T12:24:34.308Z,29.70
2019-03-24T12:27:04.714Z,36.03
2019-03-24T12:29:35.089Z,33.20
2019-03-24T12:32:05.330Z,29.98
2019-03-24T12:34:35.510Z,33.65
2019-03-24T12:37:05.943Z,35.25
2019-03-24T12:39:36.293Z,33.63
2019-03-24T12:42:06.473Z,28.95
2019-03-24T12:44:36.649Z,30.37
2019-03-24T12:47:06.847Z,32.67
2019-03-24T12:49:37.106Z,30.02
2019-03-24T12:52:07.413Z,31.93
2019-03-24T12:54:37.602Z,33.28
2019-03-24T12:57:07.907Z,26.95
2019-03-24T12:59:38.181Z,27.45
2019-03-24T13:02:08.388Z,33.13
2019-03-24T13:04:38.757Z,32.25
2019-03-24T13:07:08.997Z,32.85
2019-03-24T13:09:39.229Z,36.75
2019-03-24T13:12:09.440Z,34.98
2019-03-24T13:14:39.759Z,38.50
2019-03-24T13:17:10.005Z,35.28
2019-03-24T13:19:40.202Z,33.55
2019-03-24T13:22:10.521Z,48.50
2019-03-24T13:24:40.871Z,61.85
2019-03-24T13:27:11.086Z,35.52
2019-03-24T13:29:41.432Z,33.33
2019-03-24T13:32:11.714Z,30.85
2019-03-24T13:34:42.058Z,29.50
2019-03-24T13:37:12.313Z,28.70
2019-03-24T13:39:42.585Z,36.45
2019-03-24T13:42:12.905Z,35.23
2019-03-24T13:44:43.129Z,31.65
2019-03-24T13:47:13.509Z,29.63
2019-03-24T13:49:43.832Z,36.25
2019-03-24T13:52:15.251Z,36.03
2019-03-24T13:54:45.501Z,34.73
2019-03-24T13:57:15.913Z,29.07
2019-03-24T13:59:46.233Z,32.42
2019-03-24T14:02:16.537Z,32.58
2019-03-24T14:04:47.608Z,30.37
2019-03-24T14:07:18.121Z,36.20
2019-03-24T14:09:48.610Z,36.85
2019-03-24T14:12:18.878Z,28.32
2019-03-24T14:14:49.137Z,34.50
2019-03-24T14:17:19.422Z,33.33
2019-03-24T14:19:49.754Z,35.80
2019-03-24T14:22:20.058Z,38.45
2019-03-24T14:24:50.306Z,30.65
2019-03-24T14:27:20.674Z,30.72
2019-03-24T14:29:51.007Z,31.70
2019-03-24T14:32:21.281Z,35.43
2019-03-24T14:34:51.490Z,35.83
2019-03-24T14:37:21.776Z,34.05
2019-03-24T14:39:51.985Z,32.48
2019-03-24T14:42:22.321Z,33.00
2019-03-24T14:44:52.557Z,30.20
2019-03-24T14:47:22.736Z,32.85
2019-03-24T14:49:52.960Z,34.70
2019-03-24T14:52:23.326Z,41.58
2019-03-24T14:54:53.683Z,33.78
2019-03-24T14:57:23.989Z,38.00
2019-03-24T14:59:54.258Z,33.90
2019-03-24T15:02:24.470Z,38.10
2019-03-24T15:04:54.830Z,31.42
2019-03-24T15:07:42.809Z,33.58
2019-03-24T15:10:17.173Z,41.92
2019-03-24T15:12:47.446Z,38.05
2019-03-24T15:15:17.815Z,38.38
2019-03-24T15:17:49.247Z,40.12
2019-03-24T15:20:20.803Z,37.00
2019-03-24T15:22:52.436Z,39.80
2019-03-24T15:25:23.818Z,37.75
2019-03-24T15:27:54.158Z,32.40
2019-03-24T15:30:24.561Z,41.25
2019-03-24T15:32:54.792Z,38.10
2019-03-24T15:35:25.004Z,39.63
2019-03-24T15:38:07.831Z,35.30
2019-03-24T15:40:28.625Z,35.30
2019-03-24T15:42:58.862Z,35.60
2019-03-24T15:45:29.185Z,42.67
2019-03-24T15:47:59.465Z,37.95
2019-03-24T15:50:29.809Z,35.58
2019-03-24T15:53:00.100Z,40.25
2019-03-24T15:55:30.362Z,38.73
2019-03-24T15:58:00.592Z,37.83
2019-03-24T16:00:43.001Z,38.15
2019-03-24T16:03:13.414Z,37.38
2019-03-24T16:05:43.725Z,42.53
2019-03-24T16:08:14.035Z,42.48
2019-03-24T16:10:44.299Z,40.03
2019-03-24T16:13:14.654Z,42.23
2019-03-24T16:15:44.929Z,45.10
2019-03-24T16:18:15.315Z,40.78
2019-03-24T16:20:45.753Z,42.62
2019-03-24T16:23:16.013Z,38.53
2019-03-24T16:25:46.302Z,41.18
2019-03-24T16:28:16.623Z,46.10
2019-03-24T16:30:46.994Z,37.78
2019-03-24T16:33:17.366Z,42.93
2019-03-24T16:35:47.610Z,44.18
2019-03-24T16:38:17.889Z,43.00
2019-03-24T16:40:48.136Z,47.90
2019-03-24T16:43:18.441Z,44.55
2019-03-24T16:45:48.777Z,43.45
2019-03-24T16:48:19.089Z,46.77
2019-03-24T16:50:49.378Z,42.70
2019-03-24T16:53:19.685Z,45.28
2019-03-24T16:55:49.949Z,46.08
2019-03-24T16:58:20.250Z,43.68
2019-03-24T17:00:50.493Z,44.23
2019-03-24T17:03:20.710Z,47.13
2019-03-24T17:05:51.037Z,39.88
2019-03-24T17:08:21.234Z,41.85
2019-03-24T17:10:51.546Z,45.52
2019-03-24T17:13:21.783Z,45.75
2019-03-24T17:15:52.085Z,42.30
2019-03-24T17:18:23.502Z,44.40
2019-03-24T17:20:54.419Z,39.60
2019-03-24T17:23:24.646Z,46.10
2019-03-24T17:25:54.935Z,42.90
2019-03-24T17:28:25.407Z,39.53
2019-03-24T17:30:55.707Z,46.48
2019-03-24T17:33:26.025Z,48.70
2019-03-24T17:35:56.494Z,40.95
2019-03-24T17:38:26.765Z,44.10
2019-03-24T17:40:57.081Z,46.08
2019-03-24T17:43:27.479Z,42.17
2019-03-24T17:45:57.817Z,41.20
2019-03-24T17:48:28.203Z,40.20
2019-03-24T17:50:58.593Z,38.65
2019-03-24T17:53:28.952Z,39.83
2019-03-24T17:55:59.231Z,38.77
2019-03-24T17:58:29.438Z,35.47
2019-03-24T18:00:59.721Z,36.90
2019-03-24T18:03:30.038Z,37.75
2019-03-24T18:06:00.407Z,37.57
2019-03-24T18:08:30.601Z,39.63
2019-03-24T18:11:00.934Z,41.67
2019-03-24T18:13:31.253Z,37.60
2019-03-24T18:16:01.622Z,36.53
2019-03-24T18:18:32.005Z,39.80
2019-03-24T18:21:02.233Z,36.60
2019-03-24T18:23:32.582Z,35.48
2019-03-24T18:26:02.946Z,38.37
2019-03-24T18:28:33.293Z,35.40
2019-03-24T18:31:03.739Z,37.17
2019-03-24T18:33:35.003Z,33.83
2019-03-24T18:36:05.427Z,33.33
2019-03-24T18:38:35.841Z,36.77
2019-03-24T18:41:06.301Z,37.88
2019-03-24T18:43:36.773Z,34.43
2019-03-24T18:46:07.049Z,35.47
2019-03-24T18:48:37.374Z,34.38
2019-03-24T18:51:07.661Z,32.33
2019-03-24T18:53:37.989Z,36.20
2019-03-24T18:56:08.233Z,35.80
2019-03-24T18:58:38.454Z,35.10
2019-03-24T19:01:08.730Z,32.00
2019-03-24T19:03:38.989Z,35.97
2019-03-24T19:06:09.233Z,32.97
2019-03-24T19:08:39.606Z,35.57
2019-03-24T19:11:09.873Z,32.50
2019-03-24T19:13:42.282Z,32.10
2019-03-24T19:16:13.078Z,30.57
2019-03-24T19:18:45.848Z,28.47
2019-03-24T19:21:16.101Z,33.97
2019-03-24T19:23:46.421Z,33.87
2019-03-24T19:26:16.710Z,36.47
2019-03-24T19:28:46.981Z,30.53
2019-03-24T19:31:17.290Z,36.13
2019-03-24T19:33:47.526Z,40.70
2019-03-24T19:36:17.853Z,32.60
2019-03-24T19:38:48.147Z,33.40
2019-03-24T19:41:18.513Z,36.80
2019-03-24T19:43:48.978Z,36.87
2019-03-24T19:46:19.404Z,37.73
2019-03-24T19:48:49.697Z,39.53
2019-03-24T19:51:19.948Z,49.10
2019-03-24T19:53:50.167Z,48.03
2019-03-24T19:56:20.485Z,53.03
2019-03-24T19:58:50.831Z,52.37
2019-03-24T20:01:21.171Z,52.03
2019-03-24T20:03:51.497Z,58.37
2019-03-24T20:06:21.790Z,51.27
2019-03-24T20:08:52.063Z,53.43
2019-03-24T20:11:22.358Z,53.97
2019-03-24T20:13:53.038Z,52.00
2019-03-24T20:16:23.412Z,55.50
2019-03-24T20:18:53.665Z,56.63
2019-03-24T20:21:23.994Z,57.13
2019-03-24T20:23:54.403Z,60.43
2019-03-24T20:26:24.800Z,58.77
2019-03-24T20:28:55.139Z,55.13
2019-03-24T20:31:25.458Z,55.90
2019-03-24T20:33:55.779Z,65.43
2019-03-24T20:36:26.020Z,63.13
2019-03-24T20:38:56.333Z,59.97
2019-03-24T20:41:26.653Z,59.83
2019-03-24T20:43:56.996Z,64.07
2019-03-24T20:46:27.334Z,64.20
2019-03-24T20:48:57.629Z,64.13
2019-03-24T20:51:28.011Z,69.00
2019-03-24T20:53:58.400Z,68.77
2019-03-24T20:56:28.687Z,66.13
2019-03-24T20:58:59.047Z,61.00
2019-03-24T21:01:29.330Z,71.37
2019-03-24T21:03:59.541Z,69.70
2019-03-24T21:06:29.806Z,69.27
2019-03-24T21:09:01.350Z,69.33
2019-03-24T21:11:31.728Z,64.60
2019-03-24T21:14:02.038Z,65.23
2019-03-24T21:16:32.321Z,68.30
2019-03-24T21:19:02.773Z,67.73
2019-03-24T21:21:33.062Z,67.37
2019-03-24T21:24:03.282Z,66.63
2019-03-24T21:26:33.541Z,68.93
2019-03-24T21:29:03.883Z,69.67
2019-03-24T21:31:34.222Z,66.47
2019-03-24T21:34:04.565Z,71.23
2019-03-24T21:36:34.952Z,65.73
2019-03-24T21:39:07.505Z,69.83
2019-03-24T21:41:37.823Z,65.23
2019-03-24T21:44:08.118Z,68.00
2019-03-24T21:46:38.413Z,66.03
2019-03-24T21:49:08.810Z,73.67
2019-03-24T21:51:39.134Z,71.03
2019-03-24T21:54:09.454Z,70.40
2019-03-24T21:56:39.840Z,69.67
2019-03-24T21:59:10.068Z,64.30
2019-03-24T22:01:40.312Z,67.70
2019-03-24T22:04:11.057Z,72.63
2019-03-24T22:06:41.362Z,68.90
2019-03-24T22:09:11.685Z,72.17
2019-03-24T22:11:42.021Z,71.77
2019-03-24T22:14:12.452Z,68.63
2019-03-24T22:16:42.702Z,69.30
2019-03-24T22:19:13.726Z,59.90
2019-03-24T22:21:44.121Z,62.07
2019-03-24T22:24:14.495Z,63.77
2019-03-24T22:26:44.768Z,67.00
2019-03-24T22:29:15.085Z,59.57
2019-03-24T22:31:45.424Z,62.40
2019-03-24T22:34:15.730Z,68.23
2019-03-24T22:36:45.976Z,58.50
2019-03-24T22:39:16.218Z,64.60
2019-03-24T22:41:46.419Z,62.00
2019-03-24T22:44:16.785Z,62.13
2019-03-24T22:46:47.068Z,62.53
2019-03-24T22:49:17.346Z,65.23
2019-03-24T22:51:47.609Z,61.07
2019-03-24T22:54:17.891Z,63.40
2019-03-24T22:56:48.376Z,66.43
2019-03-24T22:59:20.958Z,64.97
2019-03-24T23:01:51.321Z,58.03
2019-03-24T23:04:21.817Z,63.90
2019-03-24T23:06:52.094Z,61.20
2019-03-24T23:09:22.376Z,68.57
2019-03-24T23:11:52.705Z,60.03
2019-03-24T23:14:22.991Z,61.70
2019-03-24T23:16:55.585Z,71.93
2019-03-24T23:19:25.952Z,66.53
2019-03-24T23:21:56.274Z,67.53
2019-03-24T23:24:26.648Z,67.47
2019-03-24T23:26:56.994Z,63.23
2019-03-24T23:29:27.386Z,63.57
2019-03-24T23:31:57.757Z,70.73
2019-03-24T23:34:28.038Z,64.47
2019-03-24T23:36:58.389Z,61.97
2019-03-24T23:39:29.026Z,67.77
2019-03-24T23:41:59.428Z,67.67
2019-03-24T23:44:29.691Z,68.17
2019-03-24T23:47:00.058Z,66.23
2019-03-24T23:49:30.271Z,64.13
2019-03-24T23:52:00.633Z,74.83
2019-03-24T23:54:30.905Z,65.67
2019-03-24T23:57:01.335Z,64.83
2019-03-24T23:59:31.653Z,64.70
